createdAt,value
2018-03-04T00:00:16.208Z,34.70
2018-03-04T00:02:17.202Z,35.80
2018-03-04T00:04:18.237Z,35.40
2018-03-04T00:06:19.478Z,35.60
2018-03-04T00:08:20.548Z,35.50
2018-03-04T00:10:22.570Z,36.00
2018-03-04T00:12:23.687Z,36.20
2018-03-04T00:14:24.807Z,36.20
2018-03-04T00:18:54.913Z,35.80
2018-03-04T00:23:25.019Z,36.00
2018-03-04T00:25:26.056Z,36.30
2018-03-04T00:27:29.970Z,36.40
2018-03-04T00:29:31.516Z,36.30
2018-03-04T00:31:47.370Z,36.40
2018-03-04T00:33:49.192Z,36.30
2018-03-04T00:35:50.696Z,36.60
2018-03-04T00:37:51.726Z,36.60
2018-03-04T00:39:52.787Z,36.60
2018-03-04T00:41:55.591Z,36.20
2018-03-04T00:44:00.746Z,36.90
2018-03-04T00:46:01.808Z,36.20
2018-03-04T00:48:03.629Z,36.60
2018-03-04T00:50:04.780Z,36.50
2018-03-04T00:52:05.879Z,36.20
2018-03-04T00:54:06.882Z,37.00
2018-03-04T00:56:08.628Z,37.50
2018-03-04T00:58:11.052Z,37.40
2018-03-04T01:00:16.597Z,37.20
2018-03-04T01:02:17.872Z,37.60
2018-03-04T01:04:18.902Z,37.10
2018-03-04T01:06:20.121Z,37.40
2018-03-04T01:08:21.100Z,37.00
2018-03-04T01:10:24.244Z,38.10
2018-03-04T01:19:52.652Z,38.00
2018-03-04T01:21:53.739Z,38.30
2018-03-04T01:23:54.728Z,38.60
2018-03-04T01:25:56.729Z,38.10
2018-03-04T01:30:25.460Z,38.00
2018-03-04T01:32:26.470Z,39.20
2018-03-04T01:36:55.539Z,38.40
2018-03-04T01:38:56.523Z,38.90
2018-03-04T01:40:57.493Z,39.30
2018-03-04T01:42:58.552Z,39.20
2018-03-04T01:44:59.552Z,38.90
2018-03-04T01:52:42.422Z,39.30
2018-03-04T01:54:43.866Z,39.30
2018-03-04T01:56:45.546Z,38.80
2018-03-04T01:58:47.180Z,39.50
2018-03-04T02:00:48.316Z,39.20
2018-03-04T02:02:49.308Z,39.30
2018-03-04T02:04:57.298Z,39.40
2018-03-04T02:06:58.691Z,39.20
2018-03-04T02:08:59.722Z,39.20
2018-03-04T02:11:00.734Z,40.00
2018-03-04T02:13:01.766Z,39.50
2018-03-04T02:15:02.820Z,40.20
2018-03-04T02:17:03.924Z,39.70
2018-03-04T02:19:27.196Z,40.30
2018-03-04T02:28:51.870Z,40.40
2018-03-04T02:30:53.629Z,41.30
2018-03-04T02:32:54.720Z,40.50
2018-03-04T02:34:55.697Z,41.50
2018-03-04T02:36:56.748Z,40.60
2018-03-04T02:41:26.458Z,40.40
2018-03-04T02:44:28.567Z,40.90
2018-03-04T02:48:57.996Z,41.70
2018-03-04T02:50:59.001Z,42.30
2018-03-04T02:55:29.102Z,42.50
2018-03-04T02:57:56.432Z,42.00
2018-03-04T02:59:58.194Z,42.50
2018-03-04T03:01:59.188Z,42.50
2018-03-04T03:04:00.162Z,42.20
2018-03-04T03:06:01.175Z,43.20
2018-03-04T03:08:02.192Z,43.90
2018-03-04T03:10:27.666Z,43.60
2018-03-04T03:12:28.734Z,43.80
2018-03-04T03:14:29.805Z,44.30
2018-03-04T03:16:31.474Z,43.80
2018-03-04T03:18:32.617Z,44.70
2018-03-04T03:20:33.668Z,45.30
2018-03-04T03:22:34.639Z,44.70
2018-03-04T03:24:35.662Z,45.70
2018-03-04T03:26:36.692Z,45.10
2018-03-04T03:28:37.659Z,46.20
2018-03-04T03:30:38.874Z,46.00
2018-03-04T03:32:40.108Z,46.20
2018-03-04T03:34:41.103Z,46.30
2018-03-04T03:36:42.106Z,46.80
2018-03-04T03:38:43.321Z,46.40
2018-03-04T03:43:13.709Z,48.60
2018-03-04T03:45:14.791Z,48.50
2018-03-04T03:47:15.881Z,48.40
2018-03-04T03:49:17.464Z,48.90
2018-03-04T03:51:19.193Z,48.90
2018-03-04T03:53:20.237Z,49.00
2018-03-04T03:57:58.924Z,49.40
2018-03-04T04:00:24.790Z,49.60
2018-03-04T04:02:36.532Z,51.20
2018-03-04T04:07:05.668Z,51.40
2018-03-04T04:09:06.666Z,51.40
2018-03-04T04:11:07.656Z,52.30
2018-03-04T04:13:08.665Z,52.90
2018-03-04T04:15:09.626Z,53.10
2018-03-04T04:17:10.663Z,53.00
2018-03-04T04:19:11.920Z,53.40
2018-03-04T04:21:26.916Z,53.50
2018-03-04T04:23:27.896Z,53.40
2018-03-04T04:25:28.892Z,54.20
2018-03-04T04:29:59.805Z,54.70
2018-03-04T04:34:29.494Z,56.30
2018-03-04T04:36:30.542Z,56.20
2018-03-04T04:38:31.561Z,55.90
2018-03-04T04:40:32.587Z,57.40
2018-03-04T04:42:33.544Z,57.80
2018-03-04T04:44:36.884Z,57.70
2018-03-04T04:46:37.989Z,57.70
2018-03-04T04:48:39.203Z,57.70
2018-03-04T04:50:40.283Z,57.80
2018-03-04T04:52:41.337Z,58.10
2018-03-04T04:54:56.609Z,59.00
2018-03-04T04:56:57.615Z,58.80
2018-03-04T05:01:36.926Z,59.10
2018-03-04T05:03:37.897Z,58.80
2018-03-04T05:05:38.899Z,59.60
2018-03-04T05:07:39.888Z,59.60
2018-03-04T05:14:37.712Z,60.80
2018-03-04T05:16:39.040Z,61.00
2018-03-04T05:18:40.064Z,61.20
2018-03-04T05:20:41.147Z,61.50
2018-03-04T05:22:42.128Z,61.40
2018-03-04T05:24:43.685Z,61.50
2018-03-04T05:26:44.863Z,62.30
2018-03-04T05:28:48.684Z,62.30
2018-03-04T05:30:49.877Z,62.20
2018-03-04T05:32:51.181Z,62.30
2018-03-04T05:34:52.231Z,62.30
2018-03-04T05:37:07.191Z,62.70
2018-03-04T05:39:08.169Z,62.60
2018-03-04T05:41:10.266Z,63.30
2018-03-04T05:43:11.273Z,63.20
2018-03-04T05:45:12.331Z,62.70
2018-03-04T05:47:38.067Z,64.30
2018-03-04T05:49:39.076Z,63.50
2018-03-04T05:51:40.129Z,64.40
2018-03-04T05:53:41.158Z,64.70
2018-03-04T05:56:06.295Z,65.10
2018-03-04T06:00:37.515Z,64.80
2018-03-04T06:02:38.528Z,65.20
2018-03-04T06:05:06.395Z,66.10
2018-03-04T06:07:07.551Z,66.00
2018-03-04T06:11:44.970Z,66.80
2018-03-04T06:13:45.955Z,66.20
2018-03-04T06:15:46.966Z,66.30
2018-03-04T06:17:48.049Z,66.30
2018-03-04T06:22:17.012Z,66.80
2018-03-04T06:26:47.223Z,67.10
2018-03-04T06:31:27.129Z,67.20
2018-03-04T06:33:28.646Z,67.10
2018-03-04T06:35:29.675Z,67.20
2018-03-04T06:37:30.687Z,67.70
2018-03-04T06:39:31.680Z,67.40
2018-03-04T06:41:46.606Z,67.70
2018-03-04T06:43:47.626Z,68.30
2018-03-04T06:45:48.800Z,67.20
2018-03-04T06:47:49.791Z,67.60
2018-03-04T06:49:50.818Z,68.10
2018-03-04T06:51:52.033Z,67.60
2018-03-04T06:53:53.066Z,67.70
2018-03-04T06:55:54.053Z,67.70
2018-03-04T06:57:55.079Z,67.80
2018-03-04T07:00:16.667Z,67.80
2018-03-04T07:02:17.692Z,67.20
2018-03-04T07:04:18.647Z,67.40
2018-03-04T07:08:46.494Z,67.50
2018-03-04T07:13:02.380Z,63.10
2018-03-04T07:15:17.214Z,61.00
2018-03-04T07:17:18.283Z,60.20
2018-03-04T07:19:19.332Z,60.40
2018-03-04T07:21:20.403Z,60.10
2018-03-04T07:23:21.372Z,59.50
2018-03-04T07:25:46.953Z,58.10
2018-03-04T07:30:15.864Z,54.80
2018-03-04T07:32:16.877Z,53.00
2018-03-04T07:34:18.145Z,52.90
2018-03-04T07:36:19.153Z,52.40
2018-03-04T07:38:46.778Z,51.70
2018-03-04T07:40:47.804Z,51.80
2018-03-04T07:42:48.857Z,51.10
2018-03-04T07:44:49.857Z,49.20
2018-03-04T07:47:16.866Z,50.10
2018-03-04T07:56:44.166Z,50.70
2018-03-04T07:58:45.364Z,50.70
2018-03-04T08:00:47.471Z,51.50
2018-03-04T08:05:17.775Z,53.50
2018-03-04T08:07:18.798Z,54.60
2018-03-04T08:09:34.456Z,54.80
2018-03-04T08:11:36.081Z,54.00
2018-03-04T08:13:47.017Z,56.40
2018-03-04T08:18:15.712Z,54.50
2018-03-04T08:22:46.963Z,52.20
2018-03-04T08:27:23.853Z,48.30
2018-03-04T08:31:56.609Z,48.30
2018-03-04T08:33:57.609Z,49.80
2018-03-04T08:35:58.988Z,51.80
2018-03-04T08:38:00.246Z,51.10
2018-03-04T08:40:01.578Z,52.90
2018-03-04T08:42:02.667Z,53.40
2018-03-04T08:44:03.724Z,54.60
2018-03-04T08:46:04.812Z,52.40
2018-03-04T08:48:05.891Z,52.70
2018-03-04T08:50:07.091Z,53.80
2018-03-04T08:52:08.125Z,52.20
2018-03-04T08:54:09.186Z,52.30
2018-03-04T08:56:10.176Z,51.00
2018-03-04T08:58:38.215Z,49.90
2018-03-04T09:00:39.210Z,49.80
2018-03-04T09:02:40.332Z,50.80
2018-03-04T09:07:18.108Z,51.20
2018-03-04T09:09:19.126Z,51.20
2018-03-04T09:11:31.267Z,51.40
2018-03-04T09:13:37.969Z,51.40
2018-03-04T09:15:38.971Z,52.10
2018-03-04T09:20:10.250Z,49.60
2018-03-04T09:22:11.384Z,49.50
2018-03-04T09:24:12.410Z,50.80
2018-03-04T09:26:13.485Z,50.20
2018-03-04T09:28:15.167Z,48.50
2018-03-04T09:30:16.180Z,47.60
2018-03-04T09:32:17.199Z,46.30
2018-03-04T09:34:18.313Z,46.10
2018-03-04T09:36:19.339Z,46.60
2018-03-04T09:38:21.151Z,45.70
2018-03-04T09:40:22.122Z,45.70
2018-03-04T09:42:23.087Z,45.60
2018-03-04T09:44:24.148Z,44.70
2018-03-04T09:46:25.207Z,43.90
2018-03-04T09:48:27.019Z,42.80
2018-03-04T09:50:28.115Z,42.80
2018-03-04T09:52:29.089Z,43.30
2018-03-04T09:54:30.229Z,44.80
2018-03-04T09:56:31.196Z,44.60
2018-03-04T09:58:32.805Z,44.60
2018-03-04T10:00:34.872Z,42.80
2018-03-04T10:02:35.975Z,42.70
2018-03-04T10:04:37.851Z,41.00
2018-03-04T10:06:38.877Z,42.20
2018-03-04T10:08:41.574Z,42.70
2018-03-04T10:10:42.634Z,41.80
2018-03-04T10:12:44.207Z,41.50
2018-03-04T10:14:45.247Z,42.20
2018-03-04T10:16:46.198Z,42.40
2018-03-04T10:18:47.793Z,42.90
2018-03-04T10:20:53.340Z,42.40
2018-03-04T10:22:55.100Z,44.00
2018-03-04T10:24:56.568Z,44.00
2018-03-04T10:26:58.089Z,42.70
2018-03-04T10:28:59.154Z,43.40
2018-03-04T10:31:00.100Z,43.90
2018-03-04T10:33:01.109Z,43.90
2018-03-04T10:35:02.123Z,44.70
2018-03-04T10:37:03.106Z,45.20
2018-03-04T10:39:04.097Z,45.70
2018-03-04T10:41:05.496Z,44.90
2018-03-04T10:43:06.594Z,45.50
2018-03-04T10:45:09.060Z,45.70
2018-03-04T10:47:10.911Z,44.90
2018-03-04T10:49:11.975Z,46.20
2018-03-04T10:51:17.646Z,46.10
2018-03-04T10:53:18.661Z,45.40
2018-03-04T10:55:19.655Z,45.30
2018-03-04T10:57:21.727Z,45.20
2018-03-04T10:59:22.696Z,45.20
2018-03-04T11:01:27.502Z,46.30
2018-03-04T11:03:28.471Z,44.60
2018-03-04T11:05:31.658Z,45.20
2018-03-04T11:07:33.476Z,43.90
2018-03-04T11:09:34.467Z,43.90
2018-03-04T11:11:36.279Z,40.30
2018-03-04T11:13:37.406Z,40.50
2018-03-04T11:15:39.333Z,38.50
2018-03-04T11:17:41.150Z,38.40
2018-03-04T11:19:46.848Z,38.70
2018-03-04T11:21:48.366Z,37.30
2018-03-04T11:26:11.691Z,38.00
2018-03-04T11:28:15.034Z,39.40
2018-03-04T11:32:54.041Z,41.40
2018-03-04T11:34:57.252Z,41.30
2018-03-04T11:36:58.394Z,41.00
2018-03-04T11:39:01.886Z,40.80
2018-03-04T11:41:08.511Z,41.00
2018-03-04T11:43:11.715Z,40.50
2018-03-04T11:45:29.948Z,39.70
2018-03-04T11:47:30.937Z,40.00
2018-03-04T11:49:52.485Z,38.90
2018-03-04T11:52:15.700Z,38.20
2018-03-04T11:54:18.895Z,37.80
2018-03-04T11:56:19.997Z,37.50
2018-03-04T11:58:21.000Z,37.00
2018-03-04T12:00:27.249Z,36.40
2018-03-04T12:02:28.354Z,35.10
2018-03-04T12:07:06.978Z,37.10
2018-03-04T12:16:42.136Z,37.00
2018-03-04T12:18:43.101Z,36.70
2018-03-04T12:20:54.481Z,35.90
2018-03-04T12:22:55.461Z,35.60
2018-03-04T12:24:56.432Z,34.80
2018-03-04T12:26:57.403Z,34.10
2018-03-04T12:29:11.609Z,34.20
2018-03-04T12:31:13.773Z,33.90
2018-03-04T12:33:14.741Z,34.20
2018-03-04T12:35:48.316Z,34.40
2018-03-04T12:37:49.261Z,34.50
2018-03-04T12:39:57.784Z,35.20
2018-03-04T12:47:27.090Z,36.60
2018-03-04T12:49:28.036Z,37.80
2018-03-04T12:59:25.012Z,38.30
2018-03-04T13:01:26.575Z,37.80
2018-03-04T13:03:29.090Z,38.60
2018-03-04T13:05:30.350Z,37.50
2018-03-04T13:07:31.924Z,36.90
2018-03-04T13:09:40.898Z,36.50
2018-03-04T13:11:45.320Z,36.60
2018-03-04T13:13:46.698Z,35.00
2018-03-04T13:15:47.704Z,34.00
2018-03-04T13:17:48.668Z,32.50
2018-03-04T13:20:02.011Z,32.50
2018-03-04T13:22:03.045Z,30.60
2018-03-04T13:24:04.007Z,32.10
2018-03-04T13:34:21.618Z,30.40
2018-03-04T13:36:24.405Z,30.00
2018-03-04T13:41:25.291Z,30.70
2018-03-04T13:43:26.306Z,30.30
2018-03-04T13:45:27.297Z,30.20
2018-03-04T13:47:28.254Z,32.50
2018-03-04T13:49:49.724Z,30.90
2018-03-04T13:57:07.639Z,32.00
2018-03-04T13:59:08.617Z,32.20
2018-03-04T14:03:47.116Z,31.40
2018-03-04T14:13:41.611Z,33.10
2018-03-04T14:31:21.789Z,32.60
2018-03-04T14:35:59.447Z,34.80
2018-03-04T14:38:00.396Z,34.30
2018-03-04T14:42:38.336Z,34.60
2018-03-04T14:44:42.852Z,33.60
2018-03-04T14:46:43.822Z,33.80
2018-03-04T14:48:44.762Z,33.80
2018-03-04T14:50:51.934Z,34.40
2018-03-04T14:55:21.934Z,34.70
2018-03-04T14:57:24.511Z,35.00
2018-03-04T14:59:25.677Z,35.20
2018-03-04T15:01:27.029Z,36.60
2018-03-04T15:03:28.072Z,37.10
2018-03-04T15:05:29.085Z,37.10
2018-03-04T15:07:52.155Z,38.60
2018-03-04T15:09:53.235Z,38.50
2018-03-04T15:11:54.946Z,39.90
2018-03-04T15:13:56.052Z,40.20
2018-03-04T15:15:57.067Z,41.00
2018-03-04T15:18:04.732Z,41.50
2018-03-04T15:20:09.859Z,42.40
2018-03-04T15:37:24.020Z,46.40
2018-03-04T15:39:25.088Z,47.90
2018-03-04T15:41:26.927Z,48.30
2018-03-04T15:43:27.999Z,48.70
2018-03-04T15:45:49.878Z,49.40
2018-03-04T15:47:50.868Z,49.40
2018-03-04T15:52:24.843Z,49.90
2018-03-04T15:54:43.384Z,51.20
2018-03-04T15:59:26.035Z,51.80
2018-03-04T16:03:40.447Z,52.10
2018-03-04T16:05:41.386Z,52.80
2018-03-04T16:07:42.338Z,53.80
2018-03-04T16:09:43.291Z,53.70
2018-03-04T16:12:06.183Z,54.70
2018-03-04T16:14:07.170Z,55.60
2018-03-04T16:16:08.441Z,56.30
2018-03-04T16:18:10.071Z,57.30
2018-03-04T16:20:11.543Z,58.70
2018-03-04T16:22:12.532Z,60.20
2018-03-04T16:24:13.504Z,61.40
2018-03-04T16:26:14.462Z,62.40
2018-03-04T16:28:15.452Z,62.90
2018-03-04T16:30:16.408Z,64.10
2018-03-04T16:32:17.391Z,65.10
2018-03-04T16:36:46.473Z,67.40
2018-03-04T16:38:57.681Z,68.80
2018-03-04T16:40:59.278Z,69.40
2018-03-04T16:43:20.512Z,69.40
2018-03-04T16:45:21.499Z,70.90
2018-03-04T16:47:22.532Z,71.90
2018-03-04T16:49:49.269Z,71.70
2018-03-04T16:51:50.229Z,71.60
2018-03-04T16:53:52.370Z,72.90
2018-03-04T16:55:53.424Z,73.10
2018-03-04T16:58:22.195Z,74.10
2018-03-04T17:03:00.732Z,74.70
2018-03-04T17:05:12.460Z,74.70
2018-03-04T17:13:23.828Z,75.50
2018-03-04T17:18:06.752Z,77.50
2018-03-04T17:20:07.751Z,77.60
2018-03-04T17:22:12.932Z,78.40
2018-03-04T17:24:14.001Z,78.40
2018-03-04T17:26:15.077Z,79.60
2018-03-04T17:28:16.213Z,80.30
2018-03-04T17:30:36.079Z,80.60
2018-03-04T17:32:44.151Z,81.40
2018-03-04T17:34:48.468Z,81.70
2018-03-04T17:37:05.129Z,81.40
2018-03-04T17:39:06.185Z,81.70
2018-03-04T17:41:07.240Z,81.30
2018-03-04T17:43:08.220Z,81.70
2018-03-04T17:45:09.985Z,81.80
2018-03-04T17:47:11.041Z,81.80
2018-03-04T17:49:17.046Z,82.40
2018-03-04T17:51:31.538Z,82.70
2018-03-04T17:53:32.802Z,82.80
2018-03-04T17:55:33.777Z,83.20
2018-03-04T17:57:36.636Z,84.70
2018-03-04T17:59:37.702Z,85.20
2018-03-04T18:01:50.733Z,85.10
2018-03-04T18:03:52.857Z,85.50
2018-03-04T18:05:53.876Z,85.90
2018-03-04T18:07:54.818Z,85.70
2018-03-04T18:09:55.769Z,86.40
2018-03-04T18:11:56.752Z,86.40
2018-03-04T18:13:57.722Z,87.70
2018-03-04T18:16:00.205Z,88.30
2018-03-04T18:18:07.797Z,88.50
2018-03-04T18:20:09.668Z,88.40
2018-03-04T18:22:25.249Z,88.40
2018-03-04T18:24:26.451Z,88.90
2018-03-04T18:26:27.385Z,89.30
2018-03-04T18:28:28.324Z,89.20
2018-03-04T18:30:35.741Z,89.60
2018-03-04T18:32:36.998Z,90.00
2018-03-04T18:34:38.086Z,89.60
2018-03-04T18:39:07.167Z,90.00
2018-03-04T18:41:16.244Z,90.20
2018-03-04T18:45:44.630Z,90.70
2018-03-04T18:50:14.542Z,90.80
2018-03-04T18:54:43.422Z,91.30
2018-03-04T18:56:46.216Z,91.50
2018-03-04T19:01:28.053Z,91.70
2018-03-04T19:03:29.149Z,92.10
2018-03-04T19:05:31.611Z,92.10
2018-03-04T19:07:32.672Z,92.40
2018-03-04T19:10:01.228Z,92.60
2018-03-04T19:12:02.221Z,92.30
2018-03-04T19:14:06.917Z,92.20
2018-03-04T19:16:18.982Z,92.50
2018-03-04T19:18:20.239Z,92.70
2018-03-04T19:20:21.254Z,93.10
2018-03-04T19:22:31.796Z,93.30
2018-03-04T19:24:45.772Z,93.20
2018-03-04T19:26:57.595Z,93.10
2018-03-04T19:28:59.246Z,93.50
2018-03-04T19:31:00.657Z,93.20
2018-03-04T19:33:01.850Z,92.90
2018-03-04T19:35:07.232Z,92.40
2018-03-04T19:37:09.727Z,92.10
2018-03-04T19:39:13.960Z,91.80
2018-03-04T19:41:15.669Z,92.40
2018-03-04T19:43:23.168Z,92.10
2018-03-04T19:45:24.164Z,91.90
2018-03-04T19:47:25.192Z,91.90
2018-03-04T19:49:26.257Z,92.40
2018-03-04T19:51:28.211Z,92.60
2018-03-04T19:53:29.281Z,92.60
2018-03-04T19:55:45.324Z,92.60
2018-03-04T20:00:18.173Z,92.50
2018-03-04T20:02:27.819Z,92.90
2018-03-04T20:04:31.658Z,92.70
2018-03-04T20:09:12.933Z,92.60
2018-03-04T20:11:28.359Z,92.80
2018-03-04T20:13:29.333Z,93.40
2018-03-04T20:15:30.345Z,93.20
2018-03-04T20:17:34.176Z,93.20
2018-03-04T20:22:11.165Z,93.50
2018-03-04T20:26:40.353Z,94.20
2018-03-04T20:28:41.400Z,93.80
2018-03-04T20:30:42.425Z,94.50
2018-03-04T20:32:43.417Z,94.50
2018-03-04T20:34:57.813Z,94.10
2018-03-04T20:36:58.956Z,94.10
2018-03-04T20:38:59.899Z,94.30
2018-03-04T20:41:00.986Z,94.40
2018-03-04T20:43:02.043Z,94.60
2018-03-04T20:45:03.158Z,94.30
2018-03-04T20:47:05.016Z,94.30
2018-03-04T20:49:06.170Z,94.30
2018-03-04T20:51:27.682Z,94.50
2018-03-04T20:53:28.688Z,94.70
2018-03-04T20:55:33.169Z,94.40
2018-03-04T20:57:34.144Z,94.30
2018-03-04T21:02:18.861Z,94.00
2018-03-04T21:04:19.835Z,93.80
2018-03-04T21:06:20.807Z,93.90
2018-03-04T21:08:21.823Z,93.90
2018-03-04T21:12:38.088Z,93.80
2018-03-04T21:14:39.066Z,93.70
2018-03-04T21:18:59.147Z,93.80
2018-03-04T21:21:00.112Z,93.80
2018-03-04T21:23:01.261Z,93.80
2018-03-04T21:25:02.389Z,93.80
2018-03-04T21:27:07.628Z,93.60
2018-03-04T21:32:09.781Z,93.80
2018-03-04T21:34:11.629Z,93.60
2018-03-04T21:36:12.768Z,93.80
2018-03-04T21:38:14.724Z,93.80
2018-03-04T21:40:16.252Z,93.80
2018-03-04T21:42:17.472Z,94.00
2018-03-04T21:44:18.500Z,93.90
2018-03-04T21:46:19.655Z,94.10
2018-03-04T21:48:20.905Z,94.10
2018-03-04T21:55:22.515Z,94.30
2018-03-04T21:57:23.529Z,94.20
2018-03-04T21:59:46.013Z,94.40
2018-03-04T22:01:47.313Z,94.40
2018-03-04T22:03:51.351Z,94.40
2018-03-04T22:05:54.528Z,94.30
2018-03-04T22:08:21.832Z,94.50
2018-03-04T22:10:23.711Z,94.50
2018-03-04T22:12:24.857Z,94.40
2018-03-04T22:17:23.069Z,94.20
2018-03-04T22:24:39.442Z,94.30
2018-03-04T22:26:40.574Z,94.00
2018-03-04T22:28:41.727Z,94.00
2018-03-04T22:30:42.797Z,93.90
2018-03-04T22:32:43.820Z,94.10
2018-03-04T22:37:27.348Z,94.00
2018-03-04T22:39:37.298Z,93.80
2018-03-04T22:43:52.609Z,94.00
2018-03-04T22:48:21.654Z,93.90
2018-03-04T22:50:37.667Z,94.20
2018-03-04T22:52:39.189Z,94.20
2018-03-04T22:54:47.608Z,94.50
2018-03-04T22:57:04.279Z,94.50
2018-03-04T22:59:05.631Z,94.60
2018-03-04T23:01:15.767Z,94.70
2018-03-04T23:03:19.503Z,94.80
2018-03-04T23:05:20.721Z,95.20
2018-03-04T23:07:26.181Z,95.30
2018-03-04T23:09:27.372Z,95.80
2018-03-04T23:11:38.302Z,95.80
2018-03-04T23:13:39.364Z,96.00
2018-03-04T23:15:40.406Z,96.30
2018-03-04T23:17:55.177Z,96.30
2018-03-04T23:20:01.994Z,96.60
2018-03-04T23:22:04.329Z,96.10
2018-03-04T23:24:05.409Z,96.30
2018-03-04T23:26:06.489Z,96.40
2018-03-04T23:28:07.498Z,96.40
2018-03-04T23:30:08.708Z,96.60
2018-03-04T23:32:38.340Z,96.60
2018-03-04T23:42:07.649Z,96.90
2018-03-04T23:54:09.975Z,97.20
2018-03-04T23:56:11.192Z,97.10
2018-03-04T23:58:20.526Z,97.20
